Time;durP1;ratioP1;P1;durP2;ratioP2;P2;SDS_P1;SDS_P2;PMS_P1;PMS_P2;Temp;Humidity;BMP_temperature;BMP_pressure;BME280_temperature;BME280_humidity;BME280_pressure;Samples;Min_cycle;Max_cycle;Signal;HPM_P1;HPM_P2
2021/04/13 00:00:29;;;;;;;5.80;4.05;;;;;;;-0.23;89.11;96506.81;4991019;28;20056;-66
2021/04/13 00:03:10;;;;;;;9.00;4.85;;;;;;;-0.24;88.54;96505.19;4985179;28;20812;-66
2021/04/13 00:05:48;;;;;;;8.27;4.45;;;;;;;-0.32;89.27;96507.84;4990565;28;20459;-66
2021/04/13 00:08:18;;;;;;;8.48;4.60;;;;;;;-0.18;89.94;96504.47;4990287;28;20066;-66
2021/04/13 00:10:48;;;;;;;7.85;4.97;;;;;;;-0.27;89.65;96507.34;4987122;28;20436;-66
2021/04/13 00:13:15;;;;;;;7.93;4.40;;;;;;;-0.19;88.34;96502.91;4988935;28;20038;-66
2021/04/13 00:15:46;;;;;;;7.20;4.57;;;;;;;-0.23;89.58;96511.16;4987992;28;20049;-67
2021/04/13 00:18:15;;;;;;;5.90;4.18;;;;;;;-0.32;88.71;96505.25;4990521;28;20042;-66
2021/04/13 00:20:43;;;;;;;7.22;4.85;;;;;;;-0.37;89.42;96510.19;4989801;28;20042;-66
2021/04/13 00:23:09;;;;;;;7.50;4.60;;;;;;;-0.23;89.87;96501.63;4989847;28;20043;-66
2021/04/13 00:25:44;;;;;;;7.20;4.50;;;;;;;-0.25;89.04;96501.00;4985097;28;20053;-65
2021/04/13 00:28:10;;;;;;;7.40;4.88;;;;;;;-0.38;89.88;96505.97;4983492;28;20050;-66
2021/04/13 00:31:06;;;;;;;7.18;4.78;;;;;;;-0.32;90.17;96510.44;4990492;28;20043;-66
2021/04/13 00:33:35;;;;;;;8.10;4.63;;;;;;;-0.31;89.88;96509.47;4989888;28;20116;-66
2021/04/13 00:36:13;;;;;;;7.10;4.55;;;;;;;-0.29;89.51;96512.66;4983301;28;20130;-66
2021/04/13 00:38:42;;;;;;;7.20;4.50;;;;;;;-0.23;89.72;96504.22;4990704;28;20462;-66
2021/04/13 00:41:11;;;;;;;8.15;4.47;;;;;;;-0.30;88.99;96511.09;4990060;28;20074;-66
2021/04/13 00:43:40;;;;;;;7.63;5.00;;;;;;;-0.33;90.21;96506.28;5002582;28;20038;-66
2021/04/13 00:46:07;;;;;;;7.13;4.50;;;;;;;-0.35;89.62;96508.22;4985745;28;20050;-66
2021/04/13 00:48:36;;;;;;;6.80;4.18;;;;;;;-0.30;89.79;96505.09;4990081;28;20048;-66
2021/04/13 00:51:20;;;;;;;8.05;4.78;;;;;;;-0.30;89.88;96510.25;4989599;28;20496;-66
2021/04/13 00:53:48;;;;;;;;;;;;;;;-0.37;90.52;96510.19;4985020;28;20085;-66
2021/04/13 00:56:16;;;;;;;8.25;4.07;;;;;;;-0.45;90.44;96518.00;4982811;28;20366;-66
2021/04/13 00:58:44;;;;;;;8.95;5.43;;;;;;;-0.61;90.55;96511.97;4990250;28;20046;-66
2021/04/13 01:01:19;;;;;;;8.95;5.05;;;;;;;-0.44;90.53;96511.84;4989507;28;20049;-66
2021/04/13 01:03:48;;;;;;;7.47;4.60;;;;;;;-0.54;91.04;96510.31;4980160;28;20050;-66
2021/04/13 01:06:20;;;;;;;9.48;5.18;;;;;;;-0.56;90.72;96516.63;4989842;28;20054;-65
2021/04/13 01:08:47;;;;;;;7.65;4.70;;;;;;;-0.45;90.33;96513.63;4984691;28;20053;-66
2021/04/13 01:11:23;;;;;;;7.13;4.70;;;;;;;-0.49;89.84;96514.16;4990451;28;20054;-66
2021/04/13 01:13:52;;;;;;;7.18;5.03;;;;;;;-0.47;89.61;96520.75;4987630;28;20507;-66
2021/04/13 01:16:22;;;;;;;7.78;5.32;;;;;;;-0.46;90.66;96516.38;4988245;28;20336;-66
2021/04/13 01:18:55;;;;;;;8.50;5.65;;;;;;;-0.59;90.60;96515.22;4989483;28;20051;-66
2021/04/13 01:21:46;;;;;;;9.45;5.10;;;;;;;-0.45;90.67;96512.81;4990526;28;20531;-67
2021/04/13 01:24:22;;;;;;;7.40;5.13;;;;;;;-0.41;91.27;96514.88;4985727;28;20042;-66
2021/04/13 01:26:50;;;;;;;10.80;6.15;;;;;;;-0.37;90.43;96515.34;4989342;28;20093;-67
2021/04/13 01:29:19;;;;;;;8.75;5.40;;;;;;;-0.44;90.31;96504.91;4989491;28;20161;-66
2021/04/13 01:31:54;;;;;;;11.57;6.50;;;;;;;-0.53;90.99;96522.25;4989637;28;20057;-67
2021/04/13 01:34:40;;;;;;;9.15;6.30;;;;;;;-0.46;91.97;96511.22;5000321;28;20050;-66
2021/04/13 01:37:19;;;;;;;9.57;5.93;;;;;;;-0.36;91.24;96511.75;4985579;28;20046;-67
2021/04/13 01:40:01;;;;;;;8.45;5.10;;;;;;;-0.42;90.25;96512.47;4989712;28;20038;-66
2021/04/13 01:42:30;;;;;;;8.65;5.70;;;;;;;-0.51;90.19;96510.94;4985140;28;20043;-66
2021/04/13 01:45:00;;;;;;;9.85;5.50;;;;;;;-0.31;90.20;96504.28;4988814;28;20065;-66
2021/04/13 01:47:26;;;;;;;10.95;5.72;;;;;;;-0.41;90.67;96506.34;4988273;28;20042;-66
2021/04/13 01:49:56;;;;;;;12.07;6.57;;;;;;;-0.64;90.73;96509.75;4989614;28;20050;-66
2021/04/13 01:52:33;;;;;;;10.48;5.93;;;;;;;-0.44;91.24;96514.44;4989622;28;20476;-66
2021/04/13 01:55:04;;;;;;;10.90;6.10;;;;;;;-0.40;90.95;96513.13;4987805;28;20104;-67
2021/04/13 01:58:02;;;;;;;11.93;5.97;;;;;;;-0.46;90.24;96511.22;4989373;28;20073;-67
2021/04/13 02:00:35;;;;;;;9.27;5.97;;;;;;;-0.51;91.48;96508.38;4992021;28;20081;-66
2021/04/13 02:03:07;;;;;;;9.52;6.38;;;;;;;-0.57;91.15;96508.06;4989110;28;20042;-66
2021/04/13 02:05:37;;;;;;;10.85;6.35;;;;;;;-0.46;91.08;96500.88;4993277;28;20065;-66
2021/04/13 02:08:32;;;;;;;9.23;6.00;;;;;;;-0.48;91.09;96508.00;4992688;28;20047;-67
2021/04/13 02:11:09;;;;;;;10.18;6.10;;;;;;;-0.51;90.66;96503.19;4990950;28;20058;-66
2021/04/13 02:13:46;;;;;;;9.05;6.32;;;;;;;-0.65;91.01;96510.72;4992088;28;20133;-66
2021/04/13 02:16:11;;;;;;;10.07;6.63;;;;;;;-0.44;91.33;96511.84;4988667;28;20092;-66
2021/04/13 02:18:46;;;;;;;10.70;7.53;;;;;;;-0.56;91.66;96504.50;4992794;28;20042;-66
2021/04/13 02:21:19;;;;;;;9.63;6.50;;;;;;;-0.50;90.80;96502.19;4992551;28;20050;-66
2021/04/13 02:23:50;;;;;;;12.02;6.88;;;;;;;-0.45;91.23;96497.31;4991654;28;20129;-66
2021/04/13 02:26:17;;;;;;;10.20;6.22;;;;;;;-0.45;91.07;96498.09;4991943;28;20090;-67
2021/04/13 02:28:45;;;;;;;9.20;6.47;;;;;;;-0.30;90.73;96505.09;5007679;28;20046;-66
2021/04/13 02:31:36;;;;;;;10.55;6.13;;;;;;;-0.39;91.01;96501.78;4992515;28;20098;-66
2021/04/13 02:34:12;;;;;;;10.90;6.55;;;;;;;-0.55;91.56;96502.72;4988038;28;20066;-67
2021/04/13 02:36:40;;;;;;;11.70;6.75;;;;;;;-0.64;91.68;96504.56;4986060;28;20416;-67
2021/04/13 02:39:11;;;;;;;11.07;6.78;;;;;;;-0.48;91.92;96497.66;4991941;28;20043;-67
2021/04/13 02:41:45;;;;;;;11.95;6.68;;;;;;;-0.43;90.84;96493.56;4989773;28;20038;-67
2021/04/13 02:44:14;;;;;;;13.38;6.85;;;;;;;-0.46;91.63;96495.69;4987920;28;20086;-67
2021/04/13 02:46:40;;;;;;;9.25;6.10;;;;;;;-0.27;90.32;96494.41;4988426;28;20061;-67
2021/04/13 02:49:17;;;;;;;9.07;5.70;;;;;;;-0.33;90.59;96484.75;5007794;28;20038;-67
2021/04/13 02:51:52;;;;;;;9.48;5.70;;;;;;;-0.43;90.98;96497.94;4985300;28;20050;-67
2021/04/13 02:54:22;;;;;;;;;;;;;;;-0.37;90.96;96499.84;4991794;28;20046;-67
2021/04/13 02:56:51;;;;;;;10.82;6.40;;;;;;;-0.56;90.91;96486.41;4991885;28;19945;-67
2021/04/13 02:59:16;;;;;;;10.05;6.15;;;;;;;-0.36;90.73;96491.91;4992593;28;20121;-67
2021/04/13 03:02:08;;;;;;;10.50;6.18;;;;;;;-0.51;90.86;96487.69;5006111;28;20416;-67
2021/04/13 03:04:41;;;;;;;10.13;6.15;;;;;;;-0.44;91.28;96489.38;4988163;28;20492;-67
2021/04/13 03:07:11;;;;;;;10.15;5.85;;;;;;;-0.42;90.46;96496.97;4988835;28;20480;-67
2021/04/13 03:09:37;;;;;;;10.02;6.32;;;;;;;-0.46;91.28;96490.53;4991784;28;20038;-67
2021/04/13 03:12:08;;;;;;;10.45;6.38;;;;;;;-0.51;91.29;96487.69;4989848;28;20471;-67
2021/04/13 03:14:37;;;;;;;8.95;5.25;;;;;;;-0.51;90.53;96500.59;4990591;28;20046;-67
2021/04/13 03:17:10;;;;;;;9.20;5.82;;;;;;;-0.44;90.21;96493.75;4991429;28;20054;-67
2021/04/13 03:19:37;;;;;;;9.88;6.13;;;;;;;-0.33;89.67;96485.56;4991253;28;20044;-67
2021/04/13 03:22:05;;;;;;;8.20;5.28;;;;;;;-0.48;89.88;96492.50;4991510;28;20058;-67
2021/04/13 03:24:35;;;;;;;10.73;6.45;;;;;;;-0.41;89.96;96485.63;4987372;28;20094;-67
2021/04/13 03:27:08;;;;;;;10.70;6.30;;;;;;;-0.64;91.12;96483.88;4984686;28;20273;-67
2021/04/13 03:30:04;;;;;;;11.93;6.35;;;;;;;-0.42;90.53;96486.63;4991711;28;20084;-67
2021/04/13 03:32:34;;;;;;;10.38;6.43;;;;;;;-0.31;90.13;96473.25;4990585;28;20038;-67
2021/04/13 03:34:59;;;;;;;11.10;6.13;;;;;;;-0.34;90.78;96473.63;4988699;28;20491;-67
2021/04/13 03:37:26;;;;;;;9.60;6.60;;;;;;;-0.38;90.67;96477.53;4991396;28;20043;-67
2021/04/13 03:39:52;;;;;;;10.52;6.53;;;;;;;-0.50;91.13;96476.34;4990839;28;20069;-67
2021/04/13 03:42:31;;;;;;;10.00;6.20;;;;;;;-0.45;91.38;96472.25;4987446;28;20154;-67
2021/04/13 03:44:58;;;;;;;12.85;6.72;;;;;;;-0.49;91.37;96483.13;4990042;28;20046;-67
2021/04/13 03:47:29;;;;;;;12.43;7.15;;;;;;;-0.67;91.84;96479.06;4989243;28;20436;-67
2021/04/13 03:49:57;;;;;;;12.35;6.90;;;;;;;-0.50;91.42;96478.91;4989365;28;20038;-67
2021/04/13 03:52:32;;;;;;;12.70;6.82;;;;;;;-0.36;90.08;96475.56;4990468;28;20038;-67
2021/04/13 03:55:19;;;;;;;13.50;6.65;;;;;;;-0.46;90.60;96485.34;4987911;28;20042;-67
2021/04/13 03:57:45;;;;;;;11.20;7.05;;;;;;;-0.40;90.79;96487.25;4987841;28;20489;-66
2021/04/13 04:00:16;;;;;;;13.00;6.90;;;;;;;-0.41;90.31;96477.88;4990696;28;20506;-67
2021/04/13 04:02:42;;;;;;;10.95;6.90;;;;;;;-0.32;90.21;96481.19;4984420;28;20053;-67
2021/04/13 04:05:15;;;;;;;11.40;6.78;;;;;;;-0.41;90.88;96483.84;4990270;28;20045;-67
2021/04/13 04:08:04;;;;;;;10.93;7.28;;;;;;;-0.38;90.86;96488.66;4989867;28;20053;-67
2021/04/13 04:10:42;;;;;;;11.15;6.70;;;;;;;-0.44;91.19;96486.00;5005763;28;20117;-67
2021/04/13 04:13:17;;;;;;;10.27;7.03;;;;;;;-0.37;90.03;96484.31;4988940;28;20046;-67
2021/04/13 04:15:44;;;;;;;10.80;6.57;;;;;;;-0.40;90.01;96484.66;4997263;28;20101;-67
2021/04/13 04:18:41;;;;;;;10.57;6.65;;;;;;;-0.38;90.75;96491.25;4989463;28;20054;-67
2021/04/13 04:21:17;;;;;;;10.38;6.50;;;;;;;-0.40;90.17;96484.66;4988985;28;20046;-67
2021/04/13 04:23:44;;;;;;;10.00;6.57;;;;;;;-0.39;91.02;96486.25;4987581;28;20124;-67
2021/04/13 04:26:18;;;;;;;11.48;6.80;;;;;;;-0.25;90.08;96487.28;4990255;28;20057;-67
2021/04/13 04:28:44;;;;;;;10.35;7.10;;;;;;;-0.28;89.88;96480.66;4990494;28;20484;-67
2021/04/13 04:31:18;;;;;;;13.15;7.22;;;;;;;-0.32;90.35;96487.16;4988032;28;20101;-67
2021/04/13 04:33:44;;;;;;;11.98;7.13;;;;;;;-0.35;90.64;96487.50;4989936;28;20034;-67
2021/04/13 04:36:26;;;;;;;11.40;7.25;;;;;;;-0.30;90.19;96485.22;4990202;28;20408;-67
2021/04/13 04:38:52;;;;;;;13.20;8.10;;;;;;;-0.42;91.35;96494.38;4984006;28;20058;-67
2021/04/13 04:41:40;;;;;;;14.88;7.45;;;;;;;-0.42;91.50;96496.97;4988273;28;20046;-66
2021/04/13 04:44:06;;;;;;;13.05;7.35;;;;;;;-0.42;90.74;96499.53;4986101;28;20049;-67
2021/04/13 04:46:39;;;;;;;12.73;8.00;;;;;;;-0.37;91.24;96499.84;4989053;28;20059;-67
2021/04/13 04:49:13;;;;;;;11.45;7.40;;;;;;;-0.29;91.03;96497.16;4990619;28;20043;-66
2021/04/13 04:51:40;;;;;;;13.60;7.60;;;;;;;-0.39;91.02;96499.19;4988583;28;20038;-65
2021/04/13 04:54:06;;;;;;;12.85;8.45;;;;;;;-0.36;90.86;96504.00;4982327;28;20054;-65
2021/04/13 04:56:32;;;;;;;11.45;7.78;;;;;;;-0.30;90.85;96505.91;4989595;28;20077;-65
2021/04/13 04:58:58;;;;;;;12.90;7.95;;;;;;;-0.24;90.49;96500.03;4990465;28;20039;-65
2021/04/13 05:01:25;;;;;;;14.48;7.65;;;;;;;-0.28;90.40;96505.72;4989529;28;20043;-65
2021/04/13 05:03:51;;;;;;;12.88;7.63;;;;;;;-0.24;90.65;96515.53;4987652;28;20042;-67
2021/04/13 05:06:18;;;;;;;17.15;8.23;;;;;;;-0.21;91.01;96507.44;4990048;28;20042;-65
2021/04/13 05:08:44;;;;;;;13.45;7.82;;;;;;;-0.27;90.82;96510.72;4989121;28;20038;-65
2021/04/13 05:11:11;;;;;;;11.93;7.88;;;;;;;-0.16;90.41;96506.09;4989235;28;20057;-65
2021/04/13 05:13:36;;;;;;;15.50;8.50;;;;;;;-0.12;90.69;96507.34;4989960;28;20050;-65
2021/04/13 05:16:02;;;;;;;10.98;7.50;;;;;;;-0.09;89.89;96512.19;4988474;28;20419;-65
2021/04/13 05:18:27;;;;;;;11.55;7.30;;;;;;;-0.03;89.98;96516.63;4990096;28;20548;-65
2021/04/13 05:20:53;;;;;;;14.02;9.18;;;;;;;-0.16;91.11;96516.44;4990462;28;20046;-65
2021/04/13 05:23:19;;;;;;;14.30;8.20;;;;;;;-0.12;90.79;96517.72;4989996;28;20047;-66
2021/04/13 05:25:45;;;;;;;15.75;9.35;;;;;;;-0.12;90.80;96518.50;4984772;28;20700;-65
2021/04/13 05:28:11;;;;;;;13.13;8.55;;;;;;;-0.09;90.84;96512.19;5005033;28;20050;-66
2021/04/13 05:30:36;;;;;;;19.33;9.73;;;;;;;-0.03;90.83;96521.81;4989961;28;20399;-65
2021/04/13 05:33:03;;;;;;;16.00;9.43;;;;;;;-0.22;91.53;96529.09;4991466;28;20046;-65
2021/04/13 05:35:29;;;;;;;15.70;9.55;;;;;;;-0.11;91.24;96529.66;4991337;28;20066;-65
2021/04/13 05:37:56;;;;;;;16.25;10.27;;;;;;;-0.02;90.50;96526.00;4993052;28;20530;-65
2021/04/13 05:40:27;;;;;;;16.75;9.38;;;;;;;0.08;90.61;96523.97;4993503;28;20042;-66
2021/04/13 05:42:57;;;;;;;17.40;9.15;;;;;;;0.21;90.44;96522.56;4988646;28;20069;-65
2021/04/13 05:45:27;;;;;;;16.35;9.52;;;;;;;0.08;90.82;96529.13;4991769;28;20054;-65
2021/04/13 05:47:53;;;;;;;16.15;10.13;;;;;;;0.15;90.58;96524.84;4992544;28;20519;-66
2021/04/13 05:50:26;;;;;;;17.23;10.30;;;;;;;0.10;90.31;96526.38;4993517;28;20038;-66
2021/04/13 05:52:52;;;;;;;17.67;10.38;;;;;;;0.20;90.63;96526.13;4991028;28;20121;-65
2021/04/13 05:55:17;;;;;;;17.92;11.48;;;;;;;0.06;89.90;96525.94;4991480;28;20134;-65
2021/04/13 05:57:45;;;;;;;19.95;12.02;;;;;;;0.13;91.06;96532.00;4993000;28;20551;-65
2021/04/13 06:00:11;;;;;;;21.60;12.10;;;;;;;0.10;90.19;96527.19;4992862;28;20054;-65
2021/04/13 06:02:40;;;;;;;18.17;11.88;;;;;;;0.24;89.89;96542.91;4990929;28;20070;-65
2021/04/13 06:05:08;;;;;;;23.25;13.05;;;;;;;0.17;89.79;96537.63;4992464;28;20050;-65
2021/04/13 06:07:34;;;;;;;20.63;12.98;;;;;;;0.24;89.99;96537.72;4991169;28;20065;-65
2021/04/13 06:09:59;;;;;;;20.75;12.13;;;;;;;0.21;90.69;96532.91;4993088;28;20042;-65
2021/04/13 06:12:25;;;;;;;25.30;14.25;;;;;;;0.15;90.68;96535.22;4992062;28;20042;-65
2021/04/13 06:14:51;;;;;;;25.63;14.10;;;;;;;0.15;91.21;96535.22;4992449;28;20038;-65
2021/04/13 06:17:18;;;;;;;28.80;13.77;;;;;;;0.06;91.28;96541.47;4986200;28;20050;-65
2021/04/13 06:19:44;;;;;;;26.10;14.68;;;;;;;-0.05;90.51;96531.53;4993066;28;20113;-65
2021/04/13 06:22:10;;;;;;;29.70;16.05;;;;;;;-0.21;90.77;96546.22;4992471;28;20520;-65
2021/04/13 06:24:35;;;;;;;28.45;15.90;;;;;;;-0.21;90.59;96541.06;4992692;28;20084;-65
2021/04/13 06:27:01;;;;;;;30.35;16.60;;;;;;;-0.21;91.09;96545.44;4986184;28;20054;-65
2021/04/13 06:29:27;;;;;;;29.95;16.17;;;;;;;0.02;91.33;96535.03;4992834;28;20046;-65
2021/04/13 06:31:53;;;;;;;33.17;18.80;;;;;;;0.14;90.98;96543.97;4991123;28;20113;-65
2021/04/13 06:34:18;;;;;;;31.70;18.05;;;;;;;-0.06;91.22;96543.69;4991687;28;20038;-65
2021/04/13 06:36:44;;;;;;;38.72;19.10;;;;;;;-0.06;91.48;96548.03;4992993;28;20045;-65
2021/04/13 06:39:11;;;;;;;30.35;17.98;;;;;;;0.16;90.80;96536.81;4992413;28;20046;-65
2021/04/13 06:42:05;;;;;;;34.05;19.05;;;;;;;0.01;91.51;96543.78;4992683;28;20046;-65
2021/04/13 06:44:56;;;;;;;31.08;17.33;;;;;;;0.13;91.23;96542.38;5006260;28;20504;-65
2021/04/13 06:47:31;;;;;;;35.30;19.05;;;;;;;0.33;90.45;96547.81;4990060;28;20101;-65
2021/04/13 06:49:56;;;;;;;32.30;17.73;;;;;;;0.21;90.02;96540.66;4990861;28;20047;-65
2021/04/13 06:52:33;;;;;;;31.08;17.92;;;;;;;-0.01;89.88;96548.34;4991583;28;20050;-65
2021/04/13 06:55:43;;;;;;;29.67;17.40;;;;;;;0.04;89.38;96538.22;4984514;28;20049;-64
2021/04/13 06:58:50;;;;;;;36.05;17.63;;;;;;;0.17;89.19;96538.44;4992068;28;20097;-66
2021/04/13 07:02:02;;;;;;;39.20;18.88;;;;;;;0.25;90.89;96531.56;4990384;28;20061;-67
2021/04/13 07:04:34;;;;;;;31.92;19.58;;;;;;;0.16;89.40;96531.66;4989027;28;20050;-66
2021/04/13 07:07:28;;;;;;;32.20;17.73;;;;;;;0.14;89.71;96533.63;4990483;28;20049;-66
2021/04/13 07:10:23;;;;;;;35.78;18.75;;;;;;;0.33;89.74;96541.81;4992320;28;20110;-66
2021/04/13 07:12:55;;;;;;;;;;;;;;;0.24;89.17;96532.53;4986771;28;20428;-67
2021/04/13 07:15:29;;;;;;;37.75;19.05;;;;;;;0.26;89.62;96535.75;4990875;28;19922;-66
2021/04/13 07:18:09;;;;;;;35.03;17.40;;;;;;;0.24;88.55;96535.13;4992149;28;20053;-66
2021/04/13 07:21:01;;;;;;;41.42;21.50;;;;;;;0.44;90.80;96543.16;4983852;28;20416;-66
2021/04/13 07:23:45;;;;;;;36.47;20.17;;;;;;;0.27;89.04;96538.16;4987540;28;20065;-66
2021/04/13 07:26:17;;;;;;;35.05;19.45;;;;;;;0.42;89.53;96545.94;4988169;28;20046;-66
2021/04/13 07:28:54;;;;;;;39.70;21.17;;;;;;;0.54;91.12;96543.69;4990182;28;20061;-66
2021/04/13 07:31:28;;;;;;;33.88;19.80;;;;;;;0.71;88.76;96538.31;4989509;28;20174;-66
2021/04/13 07:33:55;;;;;;;36.85;20.92;;;;;;;0.71;89.72;96539.13;4986499;28;20089;-66
2021/04/13 07:36:28;;;;;;;35.45;19.08;;;;;;;0.58;89.12;96539.75;4990793;28;20042;-66
2021/04/13 07:38:55;;;;;;;37.45;20.92;;;;;;;0.83;89.76;96542.84;4991271;28;20101;-66
2021/04/13 07:41:31;;;;;;;32.60;18.60;;;;;;;0.80;89.47;96538.00;4988783;28;20043;-65
2021/04/13 07:44:05;;;;;;;31.40;18.80;;;;;;;0.69;87.65;96543.69;4991043;28;20057;-66
2021/04/13 07:47:06;;;;;;;35.10;18.90;;;;;;;0.64;87.76;96543.41;4987016;28;20046;-66
2021/04/13 07:49:47;;;;;;;41.88;20.38;;;;;;;0.77;87.09;96548.75;4989368;28;20116;-66
2021/04/13 07:52:25;;;;;;;38.30;20.55;;;;;;;0.72;87.33;96548.50;5004431;28;20496;-66
2021/04/13 07:55:06;;;;;;;34.88;20.38;;;;;;;0.75;87.26;96555.91;4984388;28;20459;-66
2021/04/13 07:57:56;;;;;;;30.58;19.52;;;;;;;0.69;87.04;96551.47;4990306;28;20065;-66
2021/04/13 08:00:44;;;;;;;30.35;17.90;;;;;;;0.54;86.29;96558.44;4989149;28;20042;-65
2021/04/13 08:03:20;;;;;;;31.75;17.95;;;;;;;0.71;85.94;96552.06;4983096;28;20042;-66
2021/04/13 08:05:48;;;;;;;26.48;16.80;;;;;;;0.73;86.46;96547.50;4990203;28;20046;-66
2021/04/13 08:08:36;;;;;;;34.45;20.00;;;;;;;0.63;86.74;96557.34;4988922;28;20048;-66
2021/04/13 08:11:05;;;;;;;30.10;17.75;;;;;;;0.65;85.52;96560.56;4989900;28;20504;-66
2021/04/13 08:13:31;;;;;;;39.40;20.55;;;;;;;0.90;88.96;96548.09;4985342;28;20404;-66
2021/04/13 08:15:58;;;;;;;31.52;19.65;;;;;;;0.68;85.15;96549.84;4987122;28;20038;-66
2021/04/13 08:18:40;;;;;;;35.42;20.45;;;;;;;0.82;85.50;96549.03;4990414;28;20374;-66
2021/04/13 08:21:28;;;;;;;33.47;19.35;;;;;;;0.79;86.20;96551.97;4990790;28;20038;-66
2021/04/13 08:23:54;;;;;;;37.83;22.02;;;;;;;1.06;87.13;96556.66;4986078;28;20034;-65
2021/04/13 08:26:25;;;;;;;40.35;22.92;;;;;;;1.18;88.27;96552.59;4986659;28;20053;-65
2021/04/13 08:29:10;;;;;;;38.40;20.13;;;;;;;1.16;84.59;96562.34;4989800;28;20038;-65
2021/04/13 08:34:50;;;;;;;26.58;16.92;;;;;;;1.09;84.68;96557.06;4985132;28;20042;-66
2021/04/13 08:37:49;;;;;;;27.58;17.35;;;;;;;1.00;84.36;96558.19;4990407;28;20042;-66
2021/04/13 08:40:35;;;;;;;26.50;16.00;;;;;;;1.02;84.58;96551.00;4990821;28;20050;-66
2021/04/13 08:43:16;;;;;;;23.95;15.23;;;;;;;1.08;83.32;96560.66;4982724;28;20504;-66
2021/04/13 08:46:11;;;;;;;26.27;15.57;;;;;;;1.06;82.84;96562.63;4985860;28;20408;-66
2021/04/13 08:48:48;;;;;;;27.17;17.08;;;;;;;1.28;84.36;96557.47;5005451;28;20054;-66
2021/04/13 08:51:19;;;;;;;24.23;14.13;;;;;;;1.30;83.62;96560.69;4984788;28;20050;-67
2021/04/13 08:53:51;;;;;;;27.20;16.27;;;;;;;1.32;81.47;96561.28;4986795;28;20050;-67
2021/04/13 08:56:24;;;;;;;25.77;16.25;;;;;;;1.26;83.61;96568.03;4987654;28;20504;-67
2021/04/13 08:58:57;;;;;;;24.27;15.40;;;;;;;1.27;82.68;96563.66;4987813;28;20038;-67
2021/04/13 09:01:31;;;;;;;28.98;15.38;;;;;;;1.32;83.66;96566.47;4989710;28;20046;-66
2021/04/13 09:03:59;;;;;;;23.95;15.05;;;;;;;1.31;82.50;96570.09;4986921;28;20045;-66
2021/04/13 09:06:50;;;;;;;21.02;14.27;;;;;;;1.33;80.25;96568.09;4988824;28;20459;-66
2021/04/13 09:09:41;;;;;;;23.45;15.40;;;;;;;1.51;81.27;96571.06;4992515;28;20043;-66
2021/04/13 09:12:27;;;;;;;26.35;15.57;;;;;;;1.56;82.91;96568.72;4991710;28;20113;-66
2021/04/13 09:15:01;;;;;;;23.08;14.38;;;;;;;1.58;79.08;96570.31;4993139;28;20038;-66
2021/04/13 09:17:32;;;;;;;23.27;15.10;;;;;;;1.77;81.84;96564.50;4988328;28;20049;-67
2021/04/13 09:20:03;;;;;;;20.48;13.93;;;;;;;1.58;79.96;96567.72;4992970;28;20053;-66
2021/04/13 09:22:35;;;;;;;27.40;16.55;;;;;;;1.72;81.45;96578.06;4992875;28;20038;-66
2021/04/13 09:25:27;;;;;;;23.58;15.38;;;;;;;1.92;81.24;96577.41;4988322;28;20439;-67
2021/04/13 09:28:11;;;;;;;22.95;13.38;;;;;;;1.79;75.38;96569.50;4990537;28;20054;-65
2021/04/13 09:30:42;;;;;;;16.90;11.23;;;;;;;1.69;76.99;96577.59;4993392;28;20038;-67
2021/04/13 09:33:21;;;;;;;18.23;12.40;;;;;;;1.67;78.73;96574.41;4992332;28;20049;-65
2021/04/13 09:36:02;;;;;;;16.27;11.98;;;;;;;1.82;78.52;96577.72;4990851;28;20046;-66
2021/04/13 09:38:55;;;;;;;15.95;11.05;;;;;;;1.78;77.77;96581.69;4992319;28;20060;-66
2021/04/13 09:41:51;;;;;;;17.58;11.05;;;;;;;1.66;76.59;96572.78;4992930;28;20538;-65
2021/04/13 09:44:47;;;;;;;16.05;11.52;;;;;;;1.77;75.13;96559.31;4992777;28;20060;-65
2021/04/13 09:47:37;;;;;;;20.27;11.90;;;;;;;1.82;77.53;96556.94;4985446;28;20066;-67
2021/04/13 09:50:44;;;;;;;15.90;11.02;;;;;;;1.94;74.27;96553.84;4993104;28;20062;-66
2021/04/13 09:53:31;;;;;;;18.02;12.48;;;;;;;2.06;77.74;96558.31;4992688;28;20047;-66
2021/04/13 09:56:15;;;;;;;15.48;11.00;;;;;;;2.12;73.07;96561.97;4985396;28;20039;-66
2021/04/13 09:59:01;;;;;;;17.60;11.63;;;;;;;2.16;74.80;96557.22;4992609;28;20500;-66
2021/04/13 10:01:55;;;;;;;17.13;11.57;;;;;;;2.44;75.78;96564.94;4985874;28;20520;-66
2021/04/13 10:04:41;;;;;;;17.27;12.15;;;;;;;2.41;72.38;96554.94;4991248;28;20050;-66
2021/04/13 10:07:25;;;;;;;15.93;10.18;;;;;;;2.58;68.21;96550.25;4992645;28;20046;-66
2021/04/13 10:09:51;;;;;;;13.80;10.05;;;;;;;2.42;74.56;96549.56;4991934;28;20054;-66
2021/04/13 10:12:36;;;;;;;13.50;8.75;;;;;;;2.37;66.74;96541.56;4987191;28;20496;-67
2021/04/13 10:15:36;;;;;;;15.93;8.55;;;;;;;2.39;69.93;96551.75;4992876;28;20046;-66
2021/04/13 10:18:20;;;;;;;12.88;8.57;;;;;;;2.50;72.68;96547.78;4988651;28;20038;-66
2021/04/13 10:21:10;;;;;;;12.60;8.37;;;;;;;2.45;70.13;96545.78;4991617;28;20065;-67
2021/04/13 10:24:00;;;;;;;11.77;8.95;;;;;;;2.62;71.16;96545.47;4991274;28;20514;-67
2021/04/13 10:26:35;;;;;;;11.50;8.05;;;;;;;2.40;66.77;96537.78;4989922;28;20050;-66
2021/04/13 10:29:18;;;;;;;16.27;10.43;;;;;;;2.63;75.00;96539.25;4993009;28;20038;-67
2021/04/13 10:32:11;;;;;;;16.13;11.50;;;;;;;2.74;77.29;96531.72;4991172;28;20046;-67
2021/04/13 10:34:53;;;;;;;13.80;8.80;;;;;;;2.71;70.44;96531.31;4986579;28;20042;-66
2021/04/13 10:37:43;;;;;;;11.70;8.27;;;;;;;2.67;68.39;96527.47;4989909;28;20416;-64
2021/04/13 10:40:45;;;;;;;15.57;9.07;;;;;;;2.81;67.34;96529.13;4991770;28;20046;-65
2021/04/13 10:43:48;;;;;;;12.55;9.60;;;;;;;2.78;71.61;96534.72;4990146;28;20097;-65
2021/04/13 10:46:24;;;;;;;13.70;9.48;;;;;;;2.81;70.03;96529.13;4987388;28;20056;-64
2021/04/13 10:49:02;;;;;;;13.55;9.25;;;;;;;2.98;69.95;96528.81;4992632;28;20042;-64
2021/04/13 10:52:05;;;;;;;10.90;8.07;;;;;;;3.03;70.43;96531.59;5007306;28;20146;-66
2021/04/13 10:55:16;;;;;;;11.48;7.63;;;;;;;3.08;66.48;96524.81;4991097;28;20061;-66
2021/04/13 10:58:06;;;;;;;9.90;7.38;;;;;;;3.05;67.08;96534.81;4998854;28;20132;-69
2021/04/13 11:00:59;;;;;;;8.23;6.35;;;;;;;2.81;63.18;96520.53;4993117;28;20500;-69
2021/04/13 11:04:06;;;;;;;8.88;6.40;;;;;;;2.83;66.85;96516.75;4990382;28;20104;-69
2021/04/13 11:07:17;;;;;;;9.40;6.68;;;;;;;2.88;61.80;96519.56;4992451;28;20548;-70
2021/04/13 11:10:21;;;;;;;8.68;5.78;;;;;;;3.00;63.63;96511.19;4993751;28;20058;-70
2021/04/13 11:13:13;;;;;;;10.38;6.50;;;;;;;3.15;59.54;96519.63;4990380;28;20100;-70
2021/04/13 11:15:47;;;;;;;9.25;6.47;;;;;;;3.12;62.39;96515.63;4991263;28;20413;-69
2021/04/13 11:18:41;;;;;;;10.52;6.75;;;;;;;3.14;63.98;96512.81;4986909;28;20493;-69
2021/04/13 11:21:28;;;;;;;10.60;7.00;;;;;;;3.15;66.62;96514.44;5005128;28;20053;-70
2021/04/13 11:24:15;;;;;;;9.18;6.95;;;;;;;3.16;67.78;96510.84;4990207;28;20042;-69
2021/04/13 11:26:59;;;;;;;10.82;7.05;;;;;;;3.27;68.13;96515.44;4992307;28;20050;-69
2021/04/13 11:29:31;;;;;;;8.18;5.45;;;;;;;3.04;64.80;96512.41;4991385;28;20065;-69
2021/04/13 11:32:15;;;;;;;8.52;6.07;;;;;;;3.01;66.60;96502.41;4990366;28;20138;-70
2021/04/13 11:35:11;;;;;;;10.32;6.78;;;;;;;3.13;64.75;96506.00;4989803;28;20054;-70
2021/04/13 11:38:10;;;;;;;7.93;5.95;;;;;;;3.20;61.97;96501.63;5016840;28;20045;-69
2021/04/13 11:40:43;;;;;;;9.35;5.60;;;;;;;3.55;64.79;96498.88;4988810;28;20047;-68
2021/04/13 11:43:15;;;;;;;7.95;5.93;;;;;;;3.62;62.37;96497.06;5005602;28;20046;-69
2021/04/13 11:46:06;;;;;;;8.10;5.70;;;;;;;3.43;62.10;96500.47;4987295;28;20047;-66
2021/04/13 11:48:52;;;;;;;9.02;5.43;;;;;;;3.69;57.85;96493.66;4991176;28;20034;-66
2021/04/13 11:51:24;;;;;;;7.13;4.43;;;;;;;3.74;56.74;96491.25;4985616;28;20046;-66
2021/04/13 11:53:52;;;;;;;7.20;5.30;;;;;;;3.92;55.28;96478.44;4990056;28;20093;-66
2021/04/13 11:56:23;;;;;;;7.20;4.90;;;;;;;4.37;57.51;96484.72;4987660;28;20043;-68
2021/04/13 11:59:17;;;;;;;6.80;4.80;;;;;;;4.15;54.69;96479.75;4991792;28;20059;-66
2021/04/13 12:02:17;;;;;;;6.53;4.72;;;;;;;3.93;54.77;96489.63;5001924;28;20042;-66
2021/04/13 12:04:49;;;;;;;7.15;5.40;;;;;;;4.08;58.92;96481.59;4986461;28;20046;-66
2021/04/13 12:07:44;;;;;;;7.07;5.18;;;;;;;3.92;57.63;96478.44;4991322;28;20042;-66
2021/04/13 12:10:30;;;;;;;9.48;5.80;;;;;;;4.06;63.31;96478.41;4990954;28;20052;-66
2021/04/13 12:12:58;;;;;;;5.97;4.30;;;;;;;3.83;56.65;96484.03;5004032;28;20129;-66
2021/04/13 12:15:23;;;;;;;5.68;3.53;;;;;;;4.03;49.60;96473.59;4988358;28;20089;-66